Time;durP1;ratioP1;P1;durP2;ratioP2;P2;SDS_P1;SDS_P2;PMS_P1;PMS_P2;Temp;Humidity;BMP_temperature;BMP_pressure;BME280_temperature;BME280_humidity;BME280_pressure;Samples;Min_cycle;Max_cycle;Signal;HPM_P1;HPM_P2
2023/07/18 00:01:30;;;;;;;;;;;;;;;30.31;37.45;94790.97;5029126;28;9005;-61
2023/07/18 00:03:56;;;;;;;;;;;;;;;30.31;37.35;94796.53;5037281;28;7394;-61
2023/07/18 00:06:26;;;;;;;;;;;;;;;30.30;37.31;94788.69;5033586;28;7224;-61
2023/07/18 00:09:11;;;;;;;;;;;;;;;30.33;37.90;94793.19;5030669;28;9128;-61
2023/07/18 00:12:04;;;;;;;;;;;;;;;30.31;38.23;94782.66;5038343;28;9060;-61
2023/07/18 00:15:03;;;;;;;;;;;;;;;30.31;37.95;94779.88;5036567;28;7684;-61
2023/07/18 00:17:41;;;;;;;;;;;;;;;30.30;37.78;94786.66;4954672;28;7215;-61
2023/07/18 00:20:12;;;;;;;;;;;;;;;30.28;37.81;94782.91;4977056;28;7223;-61
2023/07/18 00:23:13;;;;;;;;;;;;;;;30.27;38.05;94779.41;4957096;28;8371;-61
2023/07/18 00:25:39;;;;;;;;;;;;;;;30.26;38.41;94777.16;4915280;29;8852;-61
2023/07/18 00:28:18;;;;;;;;;;;;;;;30.25;37.89;94787.53;4909094;29;8770;-61
2023/07/18 00:30:47;;;;;;;;;;;;;;;30.25;38.45;94784.75;4914675;29;9126;-61
2023/07/18 00:33:13;;;;;;;;;;;;;;;30.25;38.15;94775.66;4897664;29;7221;-61
2023/07/18 00:36:11;;;;;;;;;;;;;;;30.27;37.33;94773.13;4915670;29;7355;-61
2023/07/18 00:39:07;;;;;;;;;;;;;;;30.26;38.27;94772.34;4874813;29;9053;-61
2023/07/18 00:41:33;;;;;;;;;;;;;;;30.26;38.05;94772.34;4840468;29;6983;-61
2023/07/18 00:44:09;;;;;;;;;;;;;;;30.26;37.30;94777.16;4824503;29;7644;-62
2023/07/18 00:46:35;;;;;;;;;;;;;;;30.25;37.09;94770.88;4830742;29;7332;-62
2023/07/18 00:49:04;;;;;;;;;;;;;;;30.25;37.92;94776.44;4823359;29;7402;-62
2023/07/18 00:51:33;;;;;;;;;;;;;;;30.26;37.76;94771.59;4838398;29;7319;-62
2023/07/18 00:54:00;;;;;;;;;;;;;;;30.25;36.86;94776.44;4858634;29;9414;-62
2023/07/18 00:56:27;;;;;;;;;;;;;;;30.23;37.84;94778.97;4860309;29;7082;-62
2023/07/18 00:58:56;;;;;;;;;;;;;;;30.24;37.68;94772.16;4876113;29;7156;-62
2023/07/18 01:01:22;;;;;;;;;;;;;;;30.22;37.42;94774.72;4890742;29;7213;-62
2023/07/18 01:03:48;;;;;;;;;;;;;;;30.23;37.68;94772.69;4934180;29;7508;-62
2023/07/18 01:06:15;;;;;;;;;;;;;;;30.21;36.92;94770.41;4918473;29;7070;-62
2023/07/18 01:09:02;;;;;;;;;;;;;;;30.23;37.43;94764.38;4933769;29;7053;-62
2023/07/18 01:11:43;;;;;;;;;;;;;;;30.20;37.34;94763.41;4917389;29;7208;-62
2023/07/18 01:14:09;;;;;;;;;;;;;;;30.20;36.69;94763.41;4949342;28;9245;-62
2023/07/18 01:16:49;;;;;;;;;;;;;;;30.18;37.55;94760.41;4955031;28;7157;-62
2023/07/18 01:20:04;;;;;;;;;;;;;;;30.20;37.43;94763.41;5036079;28;7246;-62
2023/07/18 01:22:35;;;;;;;;;;;;;;;30.18;36.69;94749.31;5042827;28;7481;-62
2023/07/18 01:25:19;;;;;;;;;;;;;;;30.21;37.95;94742.69;5015854;28;7234;-62
2023/07/18 01:27:48;;;;;;;;;;;;;;;30.23;36.83;94748.44;5030563;28;6993;-62
2023/07/18 01:30:18;;;;;;;;;;;;;;;30.20;37.61;94749.53;5024917;28;6999;-62
2023/07/18 01:32:58;;;;;;;;;;;;;;;30.18;37.81;94749.31;5030132;28;7376;-62
2023/07/18 01:35:26;;;;;;;;;;;;;;;30.19;37.50;94741.75;5050108;28;9126;-62
2023/07/18 01:37:58;;;;;;;;;;;;;;;30.18;36.91;94740.97;5022498;28;7140;-62
2023/07/18 01:40:28;;;;;;;;;;;;;;;30.16;37.00;94735.22;5020439;28;9102;-62
2023/07/18 01:43:06;;;;;;;;;;;;;;;30.16;36.48;94737.25;5045908;28;7225;-62
2023/07/18 01:45:35;;;;;;;;;;;;;;;30.19;37.28;94734.13;5023508;28;7224;-62
2023/07/18 01:48:21;;;;;;;;;;;;;;;30.17;37.15;94731.16;5039727;28;7962;-62
2023/07/18 01:50:49;;;;;;;;;;;;;;;30.17;37.17;94735.94;5025301;28;7113;-62
2023/07/18 01:53:26;;;;;;;;;;;;;;;30.15;37.86;94730.94;5029709;28;7196;-62
2023/07/18 01:56:01;;;;;;;;;;;;;;;30.16;37.04;94729.69;5035508;28;7264;-65
2023/07/18 01:58:36;;;;;;;;;;;;;;;30.16;36.61;94728.91;5027012;28;7357;-65
2023/07/18 02:01:40;;;;;;;;;;;;;;;30.13;37.39;94727.97;5033807;28;9080;-65
2023/07/18 02:04:15;;;;;;;;;;;;;;;30.12;37.45;94720.94;5038949;28;7274;-65
2023/07/18 02:06:43;;;;;;;;;;;;;;;30.12;37.59;94718.16;5048733;28;7230;-65
2023/07/18 02:09:20;;;;;;;;;;;;;;;30.14;36.56;94723.91;5044493;28;7339;-65
2023/07/18 02:11:52;;;;;;;;;;;;;;;30.13;37.58;94729.97;5034868;28;7191;-65
2023/07/18 02:14:31;;;;;;;;;;;;;;;30.11;37.34;94722.19;5028472;28;9341;-66
2023/07/18 02:17:13;;;;;;;;;;;;;;;30.10;37.77;94728.28;5043047;28;6990;-66
2023/07/18 02:19:40;;;;;;;;;;;;;;;30.08;37.58;94717.69;5044998;28;9103;-65
2023/07/18 02:22:08;;;;;;;;;;;;;;;30.10;37.58;94728.28;5013851;28;8980;-65
2023/07/18 02:24:37;;;;;;;;;;;;;;;30.10;36.73;94722.72;5027758;28;9531;-65
2023/07/18 02:27:19;;;;;;;;;;;;;;;30.09;37.50;94719.22;5038773;28;7066;-65
2023/07/18 02:29:46;;;;;;;;;;;;;;;30.07;37.70;94716.22;5033305;28;7335;-65
2023/07/18 02:32:14;;;;;;;;;;;;;;;30.06;37.69;94714.72;5032912;28;7506;-65
2023/07/18 02:35:01;;;;;;;;;;;;;;;30.07;37.42;94713.44;5046779;28;9289;-65
2023/07/18 02:37:43;;;;;;;;;;;;;;;30.06;37.59;94703.63;5030246;28;6970;-65
2023/07/18 02:40:31;;;;;;;;;;;;;;;30.06;36.50;94719.53;5040529;28;9074;-65
2023/07/18 02:42:58;;;;;;;;;;;;;;;30.05;36.45;94721.56;5032635;28;9122;-65
2023/07/18 02:45:55;;;;;;;;;;;;;;;30.05;36.62;94724.34;5033002;28;7241;-65
2023/07/18 02:48:23;;;;;;;;;;;;;;;30.03;36.74;94715.78;5035783;28;7596;-65
2023/07/18 02:51:22;;;;;;;;;;;;;;;30.02;37.65;94708.75;5043580;28;7419;-65
2023/07/18 02:54:02;;;;;;;;;;;;;;;30.02;37.39;94710.75;4957311;28;8823;-65
2023/07/18 02:57:06;;;;;;;;;;;;;;;30.00;36.45;94711.31;4956181;28;7093;-66
2023/07/18 02:59:48;;;;;;;;;;;;;;;30.00;36.28;94713.31;4956331;28;8998;-65
2023/07/18 03:02:28;;;;;;;;;;;;;;;29.99;36.76;94709.81;4973935;28;9159;-65
2023/07/18 03:04:54;;;;;;;;;;;;;;;29.98;36.72;94705.53;4949218;28;7018;-60
2023/07/18 03:07:25;;;;;;;;;;;;;;;29.99;36.70;94709.81;4956616;28;7408;-60
2023/07/18 03:10:20;;;;;;;;;;;;;;;29.99;36.57;94706.28;4966248;28;7076;-60
2023/07/18 03:12:47;;;;;;;;;;;;;;;29.98;36.95;94705.53;4965968;28;7026;-61
2023/07/18 03:15:49;;;;;;;;;;;;;;;29.98;36.96;94704.78;4968524;28;8839;-60
2023/07/18 03:18:15;;;;;;;;;;;;;;;29.95;36.61;94701.06;4956799;28;7028;-61
2023/07/18 03:20:57;;;;;;;;;;;;;;;29.96;37.01;94699.78;4953468;28;7232;-60
2023/07/18 03:23:54;;;;;;;;;;;;;;;29.94;36.19;94699.56;4948363;28;7725;-60
2023/07/18 03:26:21;;;;;;;;;;;;;;;29.96;36.30;94701.81;4860126;29;9072;-61
2023/07/18 03:28:48;;;;;;;;;;;;;;;29.94;36.61;94699.56;4870706;29;7181;-60
2023/07/18 03:31:30;;;;;;;;;;;;;;;29.94;36.39;94705.13;4921840;29;9202;-60
2023/07/18 03:34:11;;;;;;;;;;;;;;;29.92;36.89;94704.16;4923200;29;7021;-60
2023/07/18 03:36:37;;;;;;;;;;;;;;;29.91;37.36;94694.31;4919814;29;7511;-60
2023/07/18 03:39:22;;;;;;;;;;;;;;;29.91;36.40;94692.31;4934641;29;6916;-60
2023/07/18 03:42:05;;;;;;;;;;;;;;;29.92;36.16;94693.81;4918115;29;9116;-60
2023/07/18 03:44:33;;;;;;;;;;;;;;;29.91;36.34;94697.09;4930651;29;7001;-60
2023/07/18 03:47:00;;;;;;;;;;;;;;;29.87;37.09;94683.56;4921134;29;7348;-60
2023/07/18 03:49:29;;;;;;;;;;;;;;;29.86;36.73;94676.53;4914131;29;7102;-60
2023/07/18 03:51:55;;;;;;;;;;;;;;;29.87;36.00;94691.88;4929968;29;6999;-60
2023/07/18 03:54:33;;;;;;;;;;;;;;;29.85;36.76;94683.34;4932686;29;7235;-60
2023/07/18 03:57:30;;;;;;;;;;;;;;;29.87;36.24;94693.91;4915466;29;7425;-60
2023/07/18 04:00:33;;;;;;;;;;;;;;;29.86;36.88;94695.19;4935470;29;7177;-60
2023/07/18 04:03:12;;;;;;;;;;;;;;;29.84;36.82;94686.66;4919679;28;7140;-60
2023/07/18 04:06:10;;;;;;;;;;;;;;;29.85;35.71;94688.91;4944603;28;9349;-60
2023/07/18 04:09:11;;;;;;;;;;;;;;;29.85;36.17;94677.81;4938875;28;8848;-60
2023/07/18 04:11:47;;;;;;;;;;;;;;;29.84;36.62;94678.34;4949843;28;9107;-60
2023/07/18 04:14:51;;;;;;;;;;;;;;;29.82;35.85;94686.44;4949972;28;8774;-62
2023/07/18 04:17:27;;;;;;;;;;;;;;;29.82;35.95;94678.13;4937925;28;9173;-62
2023/07/18 04:20:01;;;;;;;;;;;;;;;29.80;36.47;94678.66;4947280;28;7263;-62
2023/07/18 04:23:00;;;;;;;;;;;;;;;29.81;36.80;94671.84;4922570;28;7244;-62
2023/07/18 04:25:59;;;;;;;;;;;;;;;29.81;35.77;94677.38;4929853;29;7118;-62
2023/07/18 04:28:28;;;;;;;;;;;;;;;29.79;36.26;94675.16;4896662;29;7560;-62
2023/07/18 04:30:55;;;;;;;;;;;;;;;29.80;35.98;94671.06;4900103;29;7244;-62
2023/07/18 04:33:26;;;;;;;;;;;;;;;29.80;36.73;94665.53;4894279;29;7094;-62
2023/07/18 04:36:11;;;;;;;;;;;;;;;29.78;36.57;94670.13;4897241;29;8752;-63
2023/07/18 04:38:47;;;;;;;;;;;;;;;29.77;35.92;94665.84;4915169;29;7331;-62
2023/07/18 04:41:15;;;;;;;;;;;;;;;29.78;36.61;94664.56;4932142;28;7149;-63
2023/07/18 04:43:43;;;;;;;;;;;;;;;29.76;36.95;94650.50;4934079;29;8934;-63
2023/07/18 04:46:10;;;;;;;;;;;;;;;29.78;36.39;94653.47;4940266;28;9243;-62
2023/07/18 04:48:37;;;;;;;;;;;;;;;29.77;36.88;94652.00;4935519;28;7242;-62
2023/07/18 04:51:18;;;;;;;;;;;;;;;29.76;36.03;94653.25;4917044;29;9521;-62
2023/07/18 04:54:13;;;;;;;;;;;;;;;29.77;36.68;94654.78;4912615;29;7251;-63
2023/07/18 04:56:43;;;;;;;;;;;;;;;29.73;37.56;94655.03;4914884;29;7413;-63
2023/07/18 04:59:09;;;;;;;;;;;;;;;29.78;36.25;94656.25;4914758;29;8902;-62
2023/07/18 05:02:04;;;;;;;;;;;;;;;29.74;37.38;94650.28;4929623;28;7298;-63
2023/07/18 05:04:30;;;;;;;;;;;;;;;29.74;37.19;94655.81;4915245;29;8800;-62
2023/07/18 05:06:57;;;;;;;;;;;;;;;29.72;37.37;94655.59;4927489;29;7110;-63
2023/07/18 05:09:32;;;;;;;;;;;;;;;29.70;36.25;94645.03;4927471;28;7066;-63
2023/07/18 05:12:18;;;;;;;;;;;;;;;29.68;37.09;94641.28;4913004;29;8775;-63
2023/07/18 05:14:47;;;;;;;;;;;;;;;29.68;36.36;94646.84;4911928;29;7277;-62
2023/07/18 05:17:16;;;;;;;;;;;;;;;29.68;36.34;94644.81;4932852;28;9372;-62
2023/07/18 05:19:47;;;;;;;;;;;;;;;29.68;36.41;94647.59;4933245;29;9129;-62
2023/07/18 05:22:21;;;;;;;;;;;;;;;29.67;36.71;94650.88;4906457;29;7414;-62
2023/07/18 05:25:07;;;;;;;;;;;;;;;29.66;36.81;94641.84;4933183;29;7400;-61
2023/07/18 05:27:42;;;;;;;;;;;;;;;29.69;37.94;94637.22;4927888;29;7304;-62
2023/07/18 05:30:27;;;;;;;;;;;;;;;29.68;37.48;94638.53;4928818;29;7042;-61
2023/07/18 05:32:57;;;;;;;;;;;;;;;29.69;37.64;94637.22;4921710;28;9465;-61
2023/07/18 05:36:10;;;;;;;;;;;;;;;29.69;38.15;94629.66;4949525;28;7007;-62
2023/07/18 05:38:50;;;;;;;;;;;;;;;29.65;37.36;94632.00;4932170;29;7237;-61
2023/07/18 05:41:29;;;;;;;;;;;;;;;29.67;38.13;94634.25;4963361;28;9017;-61
2023/07/18 05:44:07;;;;;;;;;;;;;;;29.67;37.40;94629.44;4984510;28;9101;-61
2023/07/18 05:46:53;;;;;;;;;;;;;;;29.68;38.74;94635.75;4969823;28;6994;-61
2023/07/18 05:49:34;;;;;;;;;;;;;;;29.69;38.42;94628.91;4972209;28;7283;-62
2023/07/18 05:52:00;;;;;;;;;;;;;;;29.69;39.16;94634.44;4979788;28;7213;-61
2023/07/18 05:54:35;;;;;;;;;;;;;;;29.68;39.25;94624.66;4968834;28;7257;-61
2023/07/18 05:57:15;;;;;;;;;;;;;;;29.71;39.07;94629.16;4975837;28;9473;-61
2023/07/18 05:59:53;;;;;;;;;;;;;;;29.71;39.00;94626.38;4992945;28;9105;-61
2023/07/18 06:02:29;;;;;;;;;;;;;;;29.71;38.00;94623.59;4967013;28;7268;-61
2023/07/18 06:05:06;;;;;;;;;;;;;;;29.69;38.73;94626.88;4976441;28;7225;-61
2023/07/18 06:07:37;;;;;;;;;;;;;;;29.69;38.38;94626.13;4992325;28;7009;-61
2023/07/18 06:10:12;;;;;;;;;;;;;;;29.71;39.09;94629.16;4976440;28;9090;-61
2023/07/18 06:12:50;;;;;;;;;;;;;;;29.69;39.09;94624.13;4975652;28;7133;-62
2023/07/18 06:15:33;;;;;;;;;;;;;;;29.71;38.27;94624.31;4998738;28;9047;-61
2023/07/18 06:18:19;;;;;;;;;;;;;;;29.68;38.51;94619.13;5043399;28;6997;-62
2023/07/18 06:20:53;;;;;;;;;;;;;;;29.69;38.75;94624.13;5032732;28;7376;-62
2023/07/18 06:23:40;;;;;;;;;;;;;;;29.69;38.05;94620.59;5037758;28;8416;-61
2023/07/18 06:26:49;;;;;;;;;;;;;;;29.70;38.73;94616.56;5037264;28;7244;-61
2023/07/18 06:29:17;;;;;;;;;;;;;;;29.69;38.59;94615.03;4979013;28;7229;-61
2023/07/18 06:32:17;;;;;;;;;;;;;;;29.71;38.07;94604.19;4955080;28;7467;-62
2023/07/18 06:34:57;;;;;;;;;;;;;;;29.66;38.78;94603.03;4982187;28;7590;-63
2023/07/18 06:37:31;;;;;;;;;;;;;;;29.70;37.74;94617.31;4988359;28;9249;-64
2023/07/18 06:40:29;;;;;;;;;;;;;;;29.68;38.57;94600.47;4970136;28;7375;-63
2023/07/18 06:43:19;;;;;;;;;;;;;;;29.68;38.39;94594.16;4913456;29;9361;-63
2023/07/18 06:46:15;;;;;;;;;;;;;;;29.70;38.40;94599.91;4912364;29;9103;-63
2023/07/18 06:48:41;;;;;;;;;;;;;;;29.71;37.13;94591.06;4891753;29;7652;-63
2023/07/18 06:51:18;;;;;;;;;;;;;;;29.72;38.19;94597.34;4895244;29;9103;-63
2023/07/18 06:54:04;;;;;;;;;;;;;;;29.72;38.22;94580.72;4895581;29;7488;-63
2023/07/18 06:56:32;;;;;;;;;;;;;;;29.72;37.69;94589.78;4899945;29;9658;-63
2023/07/18 06:58:58;;;;;;;;;;;;;;;29.73;38.13;94585.72;4890356;29;7024;-63
2023/07/18 07:01:29;;;;;;;;;;;;;;;29.73;37.71;94587.78;4893052;29;6969;-63
2023/07/18 07:03:57;;;;;;;;;;;;;;;29.75;37.16;94590.78;4905396;29;7231;-63
2023/07/18 07:06:25;;;;;;;;;;;;;;;29.72;38.04;94580.72;4919399;29;7221;-63
2023/07/18 07:08:54;;;;;;;;;;;;;;;29.73;38.31;94582.94;4911845;29;7059;-63
2023/07/18 07:11:28;;;;;;;;;;;;;;;29.69;37.62;94579.00;4918198;29;9411;-63
2023/07/18 07:13:57;;;;;;;;;;;;;;;29.73;37.99;94576.69;4915659;29;8764;-63
2023/07/18 07:16:33;;;;;;;;;;;;;;;29.75;37.41;94574.16;4917032;29;7232;-63
2023/07/18 07:19:35;;;;;;;;;;;;;;;29.73;38.34;94576.69;4931297;28;7456;-62
2023/07/18 07:22:21;;;;;;;;;;;;;;;29.74;37.88;94578.19;4927839;29;7033;-63
2023/07/18 07:24:47;;;;;;;;;;;;;;;29.75;37.89;94568.59;4933170;28;9174;-63
2023/07/18 07:27:23;;;;;;;;;;;;;;;29.73;38.43;94569.09;4956540;28;9420;-63
2023/07/18 07:30:39;;;;;;;;;;;;;;;29.74;38.85;94567.84;4976009;28;9131;-63
2023/07/18 07:33:14;;;;;;;;;;;;;;;29.74;38.54;94561.56;4973051;28;9056;-63
2023/07/18 07:36:14;;;;;;;;;;;;;;;29.71;38.40;94565.38;4957891;28;8557;-63
2023/07/18 07:38:50;;;;;;;;;;;;;;;29.72;38.26;94555.78;4897639;29;9050;-63
2023/07/18 07:41:37;;;;;;;;;;;;;;;29.68;38.58;94547.78;4897560;29;9209;-63
2023/07/18 07:44:27;;;;;;;;;;;;;;;29.71;38.85;94554.28;4898683;29;7105;-62
2023/07/18 07:46:56;;;;;;;;;;;;;;;29.72;38.24;94558.53;4914268;29;7127;-61
2023/07/18 07:49:30;;;;;;;;;;;;;;;29.72;38.71;94555.78;4911649;29;7981;-62
2023/07/18 07:51:58;;;;;;;;;;;;;;;29.72;37.92;94547.44;4914889;29;7419;-62
2023/07/18 07:54:44;;;;;;;;;;;;;;;29.73;38.29;94543.41;4896497;29;6982;-62
2023/07/18 07:57:34;;;;;;;;;;;;;;;29.74;38.35;94539.38;4952290;28;7221;-62
2023/07/18 08:00:21;;;;;;;;;;;;;;;29.70;38.22;94530.63;4952934;28;7412;-62
2023/07/18 08:02:49;;;;;;;;;;;;;;;29.73;38.13;94535.81;4970411;28;6993;-62
2023/07/18 08:06:00;;;;;;;;;;;;;;;29.73;38.58;94527.50;4954177;28;7241;-62
2023/07/18 08:08:26;;;;;;;;;;;;;;;29.72;38.21;94530.81;4962070;28;7332;-62
2023/07/18 08:10:53;;;;;;;;;;;;;;;29.74;38.78;94533.81;4957112;28;9523;-62
2023/07/18 08:13:30;;;;;;;;;;;;;;;29.75;37.72;94524.25;4964577;28;9044;-62
2023/07/18 08:16:11;;;;;;;;;;;;;;;29.75;37.54;94518.69;5042078;28;9223;-62
2023/07/18 08:18:37;;;;;;;;;;;;;;;29.74;38.57;94515.19;5029814;28;8460;-62
2023/07/18 08:21:22;;;;;;;;;;;;;;;29.74;38.17;94517.94;5032679;28;7233;-61
2023/07/18 08:23:55;;;;;;;;;;;;;;;29.72;38.59;94517.72;5030196;28;7063;-61
2023/07/18 08:26:24;;;;;;;;;;;;;;;29.74;38.29;94509.63;5051813;28;6923;-62
2023/07/18 08:28:56;;;;;;;;;;;;;;;29.76;39.21;94514.63;5031562;28;9085;-62
2023/07/18 08:32:00;;;;;;;;;;;;;;;29.80;39.08;94520.59;5041118;28;7213;-62
2023/07/18 08:34:26;;;;;;;;;;;;;;;29.79;39.72;94516.34;4944018;28;7108;-62
2023/07/18 08:36:54;;;;;;;;;;;;;;;29.79;39.33;94510.78;4931942;29;7199;-61
2023/07/18 08:39:28;;;;;;;;;;;;;;;29.78;39.36;94515.59;4932521;28;9109;-62
2023/07/18 08:42:08;;;;;;;;;;;;;;;29.79;39.73;94521.88;4937429;28;7460;-62
2023/07/18 08:44:55;;;;;;;;;;;;;;;29.82;39.20;94522.84;4934243;28;9027;-61
2023/07/18 08:47:25;;;;;;;;;;;;;;;29.81;40.02;94516.56;4931297;28;7307;-61
2023/07/18 08:50:26;;;;;;;;;;;;;;;29.83;39.29;94513.97;4935743;28;8895;-61
2023/07/18 08:53:23;;;;;;;;;;;;;;;29.85;38.66;94510.66;4947957;28;7672;-61
2023/07/18 08:55:58;;;;;;;;;;;;;;;29.85;38.93;94511.41;4933371;29;7093;-64
2023/07/18 08:58:36;;;;;;;;;;;;;;;29.84;38.61;94514.72;4932251;29;7340;-63
2023/07/18 09:01:12;;;;;;;;;;;;;;;29.83;39.78;94530.63;4918953;29;9259;-64
2023/07/18 09:04:15;;;;;;;;;;;;;;;29.84;39.70;94523.78;4930186;29;7010;-63
2023/07/18 09:07:11;;;;;;;;;;;;;;;29.85;39.67;94528.06;4861871;29;7217;-63
2023/07/18 09:09:47;;;;;;;;;;;;;;;29.83;39.18;94519.53;4913141;29;9047;-64
2023/07/18 09:12:23;;;;;;;;;;;;;;;29.86;38.89;94514.94;4913607;29;7259;-63
2023/07/18 09:15:16;;;;;;;;;;;;;;;29.87;39.39;94494.22;4913321;29;9414;-64
2023/07/18 09:17:54;;;;;;;;;;;;;;;29.89;39.17;94484.09;4907472;29;6994;-64
2023/07/18 09:20:54;;;;;;;;;;;;;;;29.91;39.36;94455.81;4913322;29;7092;-64
2023/07/18 09:23:39;;;;;;;;;;;;;;;29.90;39.90;94438.47;4858823;29;8028;-64
2023/07/18 09:29:57;;;;;;;;;;;;;;;29.92;38.67;94437.91;4849333;29;7254;-64
2023/07/18 09:32:55;;;;;;;;;;;;;;;29.96;38.53;94444.63;4854962;29;7309;-64
2023/07/18 09:36:02;;;;;;;;;;;;;;;29.97;39.62;94467.56;4873258;29;7600;-63
2023/07/18 09:38:31;;;;;;;;;;;;;;;29.99;39.29;94478.84;4862029;29;9164;-64
2023/07/18 09:40:57;;;;;;;;;;;;;;;29.98;38.73;94464.25;4886001;29;7077;-64
2023/07/18 09:43:37;;;;;;;;;;;;;;;29.99;38.80;94468.50;4900594;29;7193;-64
2023/07/18 09:46:33;;;;;;;;;;;;;;;30.02;39.12;94472.97;4914252;29;9130;-64
2023/07/18 09:49:12;;;;;;;;;;;;;;;30.01;39.85;94474.28;4911371;29;9208;-64
2023/07/18 09:51:47;;;;;;;;;;;;;;;30.03;39.28;94474.47;4895232;29;8888;-64
2023/07/18 09:54:35;;;;;;;;;;;;;;;30.05;40.31;94466.34;4892196;29;7276;-64
2023/07/18 09:57:21;;;;;;;;;;;;;;;30.05;39.64;94452.47;4912787;29;7031;-63
2023/07/18 09:59:48;;;;;;;;;;;;;;;30.09;40.01;94468.78;4974764;28;7123;-64
2023/07/18 10:02:14;;;;;;;;;;;;;;;30.09;39.25;94480.63;4987572;28;9035;-64
2023/07/18 10:04:41;;;;;;;;;;;;;;;30.10;39.71;94484.16;4972399;28;7138;-62
2023/07/18 10:07:13;;;;;;;;;;;;;;;30.11;39.15;94486.38;5017852;28;7214;-62
2023/07/18 10:09:47;;;;;;;;;;;;;;;30.13;39.93;94483.06;5051919;28;7011;-62
2023/07/18 10:12:16;;;;;;;;;;;;;;;30.15;39.80;94495.13;5033205;28;7210;-61
2023/07/18 10:15:00;;;;;;;;;;;;;;;30.17;39.92;94508.44;5038735;28;7359;-62
2023/07/18 10:17:40;;;;;;;;;;;;;;;30.16;39.94;94515.28;5039077;28;7237;-62
2023/07/18 10:20:19;;;;;;;;;;;;;;;30.19;39.72;94523.28;5033874;28;7292;-61
2023/07/18 10:23:01;;;;;;;;;;;;;;;30.21;40.09;94512.38;5046650;28;8554;-61
2023/07/18 10:25:57;;;;;;;;;;;;;;;30.23;40.29;94507.03;5035424;28;9079;-61
2023/07/18 10:28:41;;;;;;;;;;;;;;;30.24;41.12;94496.69;5030686;28;7383;-61
2023/07/18 10:31:28;;;;;;;;;;;;;;;30.27;40.10;94488.03;5044705;28;7010;-61
2023/07/18 10:34:09;;;;;;;;;;;;;;;30.30;40.41;94481.41;5049210;28;8997;-61
2023/07/18 10:37:31;;;;;;;;;;;;;;;30.33;40.92;94476.84;5033063;28;7347;-61
2023/07/18 10:40:38;;;;;;;;;;;;;;;30.33;40.29;94474.81;5026225;28;7046;-61
2023/07/18 10:43:22;;;;;;;;;;;;;;;30.35;40.73;94477.03;4965405;28;9337;-61
2023/07/18 10:45:48;;;;;;;;;;;;;;;30.38;40.13;94467.63;4969093;28;6982;-61
2023/07/18 10:48:23;;;;;;;;;;;;;;;30.40;40.42;94465.81;4971184;28;7012;-61
2023/07/18 10:51:04;;;;;;;;;;;;;;;30.39;40.50;94480.22;4969058;28;8755;-61
2023/07/18 10:53:40;;;;;;;;;;;;;;;30.41;40.88;94480.41;4958071;28;9121;-61
2023/07/18 10:56:44;;;;;;;;;;;;;;;30.46;40.25;94474.75;4956334;28;8270;-61
2023/07/18 10:59:31;;;;;;;;;;;;;;;30.48;40.68;94488.81;4920623;29;9021;-62
2023/07/18 11:02:03;;;;;;;;;;;;;;;30.50;40.43;94493.81;4934136;29;8213;-62
2023/07/18 11:04:32;;;;;;;;;;;;;;;30.47;39.39;94509.53;4935309;29;7223;-61
2023/07/18 11:06:59;;;;;;;;;;;;;;;30.48;39.67;94549.91;4924430;29;9244;-60
2023/07/18 11:09:27;;;;;;;;;;;;;;;30.45;40.09;94623.13;4936971;29;9450;-60
2023/07/18 11:12:22;;;;;;;;;;;;;;;30.45;39.59;94723.06;4934949;29;6989;-61
2023/07/18 11:14:58;;;;;;;;;;;;;;;30.39;40.70;94768.84;4891472;29;9176;-60
2023/07/18 11:17:26;;;;;;;;;;;;;;;30.41;40.48;94771.84;4893987;29;9016;-60
2023/07/18 11:20:06;;;;;;;;;;;;;;;30.37;39.63;94774.94;4914465;29;6997;-61
2023/07/18 11:23:04;;;;;;;;;;;;;;;30.34;39.70;94781.56;4911005;29;7275;-60
2023/07/18 11:25:35;;;;;;;;;;;;;;;30.31;39.61;94768.00;4855023;29;7359;-60
2023/07/18 11:28:11;;;;;;;;;;;;;;;30.31;40.93;94729.91;4863153;29;7206;-60
2023/07/18 11:30:51;;;;;;;;;;;;;;;30.31;40.26;94674.41;4878015;29;7248;-60
2023/07/18 11:33:17;;;;;;;;;;;;;;;30.29;40.43;94638.09;4884058;29;7669;-60
2023/07/18 11:35:57;;;;;;;;;;;;;;;30.26;40.76;94641.94;4903971;29;7349;-60
2023/07/18 11:38:32;;;;;;;;;;;;;;;30.27;39.90;94649.00;4905891;29;7230;-60
2023/07/18 11:40:59;;;;;;;;;;;;;;;30.26;40.30;94633.59;4902079;29;7436;-61
2023/07/18 11:43:31;;;;;;;;;;;;;;;30.29;40.02;94631.78;4897798;29;7210;-61
2023/07/18 11:46:12;;;;;;;;;;;;;;;30.27;40.83;94589.97;4903247;29;7251;-61
2023/07/18 11:49:12;;;;;;;;;;;;;;;30.30;40.06;94584.06;4886932;29;7325;-61
2023/07/18 11:51:51;;;;;;;;;;;;;;;30.33;40.47;94601.72;4888220;29;7060;-61
2023/07/18 11:55:05;;;;;;;;;;;;;;;30.33;40.50;94626.69;4899852;29;7202;-60
2023/07/18 11:57:32;;;;;;;;;;;;;;;30.33;39.55;94621.13;4898567;29;7547;-61
2023/07/18 12:00:43;;;;;;;;;;;;;;;30.33;40.46;94621.88;4897452;29;6932;-61
2023/07/18 12:03:19;;;;;;;;;;;;;;;30.37;40.44;94675.03;4901409;29;7315;-60
2023/07/18 12:05:56;;;;;;;;;;;;;;;30.38;40.46;94695.22;4898224;29;7247;-60
2023/07/18 12:08:31;;;;;;;;;;;;;;;30.38;39.49;94662.63;4897528;29;9110;-61
2023/07/18 12:11:09;;;;;;;;;;;;;;;30.38;40.12;94612.69;4901251;29;8798;-61
2023/07/18 12:13:38;;;;;;;;;;;;;;;30.39;40.89;94653.03;4897786;29;9064;-61
2023/07/18 12:16:13;;;;;;;;;;;;;;;30.43;40.55;94663.81;4903837;29;7303;-61
2023/07/18 12:18:50;;;;;;;;;;;;;;;30.42;40.61;94642.91;4893280;29;6996;-61
2023/07/18 12:21:33;;;;;;;;;;;;;;;30.42;40.31;94665.84;4903183;29;7350;-61
2023/07/18 12:24:03;;;;;;;;;;;;;;;30.44;40.55;94659.75;4901796;29;8809;-60
2023/07/18 12:26:32;;;;;;;;;;;;;;;30.44;40.40;94679.94;4901571;29;7126;-59
2023/07/18 12:29:03;;;;;;;;;;;;;;;30.45;39.96;94650.88;4920026;29;7868;-60
2023/07/18 12:31:56;;;;;;;;;;;;;;;30.46;40.56;94619.09;4923841;29;8902;-59
2023/07/18 12:34:24;;;;;;;;;;;;;;;30.48;40.42;94569.31;4955026;28;7169;-59
2023/07/18 12:37:05;;;;;;;;;;;;;;;30.45;40.13;94534.31;4958450;28;7206;-60
2023/07/18 12:40:09;;;;;;;;;;;;;;;30.48;40.24;94511.03;4991507;28;8732;-59
2023/07/18 12:42:37;;;;;;;;;;;;;;;30.49;40.29;94562.47;4998662;28;7214;-60
2023/07/18 12:45:33;;;;;;;;;;;;;;;30.47;39.67;94669.81;4996260;28;7297;-59
2023/07/18 12:48:20;;;;;;;;;;;;;;;30.48;40.67;94618.53;4964485;28;10184;-59
2023/07/18 12:51:10;;;;;;;;;;;;;;;30.48;39.54;94566.53;4965477;28;7252;-59
2023/07/18 12:53:57;;;;;;;;;;;;;;;30.48;39.35;94524.91;4965569;28;7085;-60
2023/07/18 12:56:23;;;;;;;;;;;;;;;30.45;40.47;94562.06;4950186;28;9032;-60
2023/07/18 12:58:49;;;;;;;;;;;;;;;30.45;40.16;94566.88;4973131;28;9109;-60
2023/07/18 13:01:24;;;;;;;;;;;;;;;30.47;39.67;94542.13;4969802;28;7347;-60
2023/07/18 13:03:58;;;;;;;;;;;;;;;30.45;39.63;94537.09;4969583;28;7205;-59
2023/07/18 13:06:24;;;;;;;;;;;;;;;30.48;40.51;94510.28;4967226;28;7088;-60
2023/07/18 13:09:12;;;;;;;;;;;;;;;30.45;39.76;94403.09;5079705;28;7044;-59
2023/07/18 13:11:38;;;;;;;;;;;;;;;30.44;39.76;94365.53;5062545;28;8086;-59
2023/07/18 13:14:08;;;;;;;;;;;;;;;30.45;40.30;94361.47;5065452;28;7223;-59
2023/07/18 13:16:34;;;;;;;;;;;;;;;30.47;39.70;94397.78;5094911;28;7199;-59
2023/07/18 13:19:01;;;;;;;;;;;;;;;30.45;40.23;94453.81;5077919;28;6998;-59
2023/07/18 13:21:46;;;;;;;;;;;;;;;30.45;40.39;94476.03;5081255;28;7201;-59
2023/07/18 13:24:12;;;;;;;;;;;;;;;30.47;41.01;94528.97;5063113;28;7318;-58
2023/07/18 13:26:38;;;;;;;;;;;;;;;30.48;40.55;94526.94;5067720;28;8781;-59
2023/07/18 13:29:05;;;;;;;;;;;;;;;30.43;40.51;94517.44;5066483;28;7210;-59
2023/07/18 13:31:40;;;;;;;;;;;;;;;30.47;40.30;94456.78;5081391;28;9478;-59
2023/07/18 13:34:19;;;;;;;;;;;;;;;30.46;40.61;94399.81;5069554;28;7239;-64
2023/07/18 13:37:15;;;;;;;;;;;;;;;30.48;40.06;94299.31;5085727;28;7325;-65
2023/07/18 13:39:49;;;;;;;;;;;;;;;30.47;40.83;94286.75;5013223;28;7216;-64
2023/07/18 13:42:24;;;;;;;;;;;;;;;30.45;39.97;94320.59;5007945;28;9169;-64
2023/07/18 13:45:20;;;;;;;;;;;;;;;30.47;39.77;94381.84;5005073;28;7247;-65
2023/07/18 13:47:56;;;;;;;;;;;;;;;30.47;40.11;94372.78;4984885;28;9092;-65
2023/07/18 13:50:22;;;;;;;;;;;;;;;30.46;40.88;94374.81;4988405;28;8502;-65
2023/07/18 13:52:51;;;;;;;;;;;;;;;30.47;40.13;94370.03;4970354;28;7227;-64
2023/07/18 13:55:19;;;;;;;;;;;;;;;30.46;40.61;94335.97;4971453;28;7434;-64
2023/07/18 13:57:46;;;;;;;;;;;;;;;30.48;40.30;94321.53;4974643;28;7178;-64
2023/07/18 14:00:15;;;;;;;;;;;;;;;30.44;40.04;94308.00;4943241;28;7153;-64
2023/07/18 14:02:43;;;;;;;;;;;;;;;30.48;39.74;94308.41;4977448;28;7250;-64